sensor_id;sensor_type;location;lat;lon;timestamp;P1;durP1;ratioP1;P2;durP2;ratioP2
595;SDS011;19946;49.306;11.350;2023-07-20T00:01:41;0.60;;;0.60;;
595;SDS011;19946;49.306;11.350;2023-07-20T00:04:44;1.10;;;1.10;;
595;SDS011;19946;49.306;11.350;2023-07-20T00:07:45;1.50;;;1.50;;
595;SDS011;19946;49.306;11.350;2023-07-20T00:10:45;2.90;;;2.90;;
595;SDS011;19946;49.306;11.350;2023-07-20T00:13:45;1.73;;;1.73;;
595;SDS011;19946;49.306;11.350;2023-07-20T00:16:46;1.50;;;1.50;;
595;SDS011;19946;49.306;11.350;2023-07-20T00:19:46;1.90;;;1.90;;
595;SDS011;19946;49.306;11.350;2023-07-20T00:22:46;2.30;;;2.30;;
595;SDS011;19946;49.306;11.350;2023-07-20T00:25:47;1.70;;;1.70;;
595;SDS011;19946;49.306;11.350;2023-07-20T00:28:50;1.23;;;1.23;;
595;SDS011;19946;49.306;11.350;2023-07-20T00:31:53;1.20;;;1.20;;
595;SDS011;19946;49.306;11.350;2023-07-20T00:34:53;0.90;;;0.90;;
595;SDS011;19946;49.306;11.350;2023-07-20T00:37:54;0.90;;;0.90;;
595;SDS011;19946;49.306;11.350;2023-07-20T00:40:55;1.50;;;1.50;;
595;SDS011;19946;49.306;11.350;2023-07-20T00:43:55;0.90;;;0.90;;
595;SDS011;19946;49.306;11.350;2023-07-20T00:46:56;0.40;;;0.40;;
595;SDS011;19946;49.306;11.350;2023-07-20T00:49:56;0.80;;;0.80;;
595;SDS011;19946;49.306;11.350;2023-07-20T00:52:57;0.60;;;0.60;;
595;SDS011;19946;49.306;11.350;2023-07-20T00:55:58;0.83;;;0.83;;
595;SDS011;19946;49.306;11.350;2023-07-20T00:58:58;0.70;;;0.70;;
595;SDS011;19946;49.306;11.350;2023-07-20T01:01:59;1.00;;;1.00;;
595;SDS011;19946;49.306;11.350;2023-07-20T01:05:00;1.30;;;1.30;;
595;SDS011;19946;49.306;11.350;2023-07-20T01:08:03;1.67;;;1.67;;
595;SDS011;19946;49.306;11.350;2023-07-20T01:14:31;2.20;;;2.20;;
595;SDS011;19946;49.306;11.350;2023-07-20T01:17:33;1.03;;;1.03;;
595;SDS011;19946;49.306;11.350;2023-07-20T01:20:33;1.30;;;1.30;;
595;SDS011;19946;49.306;11.350;2023-07-20T01:23:44;2.10;;;2.10;;
595;SDS011;19946;49.306;11.350;2023-07-20T01:30:49;1.00;;;1.00;;
595;SDS011;19946;49.306;11.350;2023-07-20T01:34:11;0.93;;;0.93;;
595;SDS011;19946;49.306;11.350;2023-07-20T01:37:16;1.00;;;1.00;;
595;SDS011;19946;49.306;11.350;2023-07-20T01:40:20;1.20;;;1.20;;
595;SDS011;19946;49.306;11.350;2023-07-20T01:43:22;1.40;;;1.40;;
595;SDS011;19946;49.306;11.350;2023-07-20T01:46:22;1.40;;;1.40;;
595;SDS011;19946;49.306;11.350;2023-07-20T01:49:22;1.20;;;1.20;;
595;SDS011;19946;49.306;11.350;2023-07-20T01:52:23;1.60;;;1.60;;
595;SDS011;19946;49.306;11.350;2023-07-20T01:55:24;1.40;;;1.40;;
595;SDS011;19946;49.306;11.350;2023-07-20T01:58:25;2.80;;;2.80;;
595;SDS011;19946;49.306;11.350;2023-07-20T02:01:26;2.73;;;2.73;;
595;SDS011;19946;49.306;11.350;2023-07-20T02:04:28;2.20;;;2.20;;
595;SDS011;19946;49.306;11.350;2023-07-20T02:07:28;2.30;;;2.30;;
595;SDS011;19946;49.306;11.350;2023-07-20T02:10:29;2.60;;;2.60;;
595;SDS011;19946;49.306;11.350;2023-07-20T02:13:29;2.00;;;2.00;;
595;SDS011;19946;49.306;11.350;2023-07-20T02:16:30;2.20;;;2.20;;
595;SDS011;19946;49.306;11.350;2023-07-20T02:19:31;1.00;;;1.00;;
595;SDS011;19946;49.306;11.350;2023-07-20T02:22:31;1.10;;;1.10;;
595;SDS011;19946;49.306;11.350;2023-07-20T02:25:32;1.10;;;1.10;;
595;SDS011;19946;49.306;11.350;2023-07-20T02:28:32;1.13;;;1.13;;
595;SDS011;19946;49.306;11.350;2023-07-20T02:31:32;1.40;;;1.40;;
595;SDS011;19946;49.306;11.350;2023-07-20T02:34:33;1.80;;;1.80;;
595;SDS011;19946;49.306;11.350;2023-07-20T02:37:34;0.30;;;0.30;;
595;SDS011;19946;49.306;11.350;2023-07-20T02:40:34;0.30;;;0.30;;
595;SDS011;19946;49.306;11.350;2023-07-20T02:43:34;0.30;;;0.30;;
595;SDS011;19946;49.306;11.350;2023-07-20T02:46:35;0.30;;;0.30;;
595;SDS011;19946;49.306;11.350;2023-07-20T02:49:35;0.40;;;0.40;;
595;SDS011;19946;49.306;11.350;2023-07-20T02:52:35;0.40;;;0.40;;
595;SDS011;19946;49.306;11.350;2023-07-20T02:55:36;0.50;;;0.50;;
595;SDS011;19946;49.306;11.350;2023-07-20T02:58:39;0.20;;;0.20;;
595;SDS011;19946;49.306;11.350;2023-07-20T03:01:43;0.30;;;0.30;;
595;SDS011;19946;49.306;11.350;2023-07-20T03:04:43;0.20;;;0.20;;
595;SDS011;19946;49.306;11.350;2023-07-20T03:07:44;0.10;;;0.10;;
595;SDS011;19946;49.306;11.350;2023-07-20T03:10:45;0.30;;;0.30;;
595;SDS011;19946;49.306;11.350;2023-07-20T03:13:46;0.30;;;0.30;;
595;SDS011;19946;49.306;11.350;2023-07-20T03:16:47;0.30;;;0.30;;
595;SDS011;19946;49.306;11.350;2023-07-20T03:19:47;0.40;;;0.40;;
595;SDS011;19946;49.306;11.350;2023-07-20T03:22:47;0.90;;;0.90;;
595;SDS011;19946;49.306;11.350;2023-07-20T03:25:48;0.53;;;0.53;;
595;SDS011;19946;49.306;11.350;2023-07-20T03:28:49;0.30;;;0.30;;
595;SDS011;19946;49.306;11.350;2023-07-20T03:31:49;0.53;;;0.53;;
595;SDS011;19946;49.306;11.350;2023-07-20T03:34:51;0.40;;;0.40;;
595;SDS011;19946;49.306;11.350;2023-07-20T03:37:52;0.30;;;0.30;;
595;SDS011;19946;49.306;11.350;2023-07-20T03:40:56;0.40;;;0.40;;
595;SDS011;19946;49.306;11.350;2023-07-20T03:43:58;0.40;;;0.40;;
595;SDS011;19946;49.306;11.350;2023-07-20T03:46:58;0.40;;;0.40;;
595;SDS011;19946;49.306;11.350;2023-07-20T03:49:58;0.50;;;0.50;;
595;SDS011;19946;49.306;11.350;2023-07-20T03:52:59;0.50;;;0.50;;
595;SDS011;19946;49.306;11.350;2023-07-20T03:55:59;0.30;;;0.30;;
595;SDS011;19946;49.306;11.350;2023-07-20T03:58:59;0.50;;;0.50;;
595;SDS011;19946;49.306;11.350;2023-07-20T04:02:00;0.40;;;0.40;;
595;SDS011;19946;49.306;11.350;2023-07-20T04:05:00;0.60;;;0.60;;
595;SDS011;19946;49.306;11.350;2023-07-20T04:08:00;0.50;;;0.50;;
595;SDS011;19946;49.306;11.350;2023-07-20T04:11:01;0.40;;;0.40;;
595;SDS011;19946;49.306;11.350;2023-07-20T04:14:02;0.50;;;0.50;;
595;SDS011;19946;49.306;11.350;2023-07-20T04:17:02;0.53;;;0.53;;
595;SDS011;19946;49.306;11.350;2023-07-20T04:20:03;0.60;;;0.60;;
595;SDS011;19946;49.306;11.350;2023-07-20T04:23:05;0.70;;;0.70;;
595;SDS011;19946;49.306;11.350;2023-07-20T04:26:06;1.60;;;1.60;;
595;SDS011;19946;49.306;11.350;2023-07-20T04:29:07;1.00;;;1.00;;
595;SDS011;19946;49.306;11.350;2023-07-20T04:32:10;0.97;;;0.97;;
595;SDS011;19946;49.306;11.350;2023-07-20T04:35:11;0.90;;;0.90;;
595;SDS011;19946;49.306;11.350;2023-07-20T04:38:14;0.70;;;0.70;;
595;SDS011;19946;49.306;11.350;2023-07-20T04:41:19;0.70;;;0.70;;
595;SDS011;19946;49.306;11.350;2023-07-20T04:44:22;0.40;;;0.40;;
595;SDS011;19946;49.306;11.350;2023-07-20T04:47:22;0.50;;;0.50;;
595;SDS011;19946;49.306;11.350;2023-07-20T04:50:24;0.60;;;0.60;;
595;SDS011;19946;49.306;11.350;2023-07-20T04:53:25;0.50;;;0.50;;
595;SDS011;19946;49.306;11.350;2023-07-20T04:56:25;0.30;;;0.30;;
595;SDS011;19946;49.306;11.350;2023-07-20T04:59:28;0.50;;;0.50;;
595;SDS011;19946;49.306;11.350;2023-07-20T05:02:28;0.30;;;0.30;;
595;SDS011;19946;49.306;11.350;2023-07-20T05:05:29;0.40;;;0.40;;
595;SDS011;19946;49.306;11.350;2023-07-20T05:08:29;0.20;;;0.20;;
595;SDS011;19946;49.306;11.350;2023-07-20T05:11:30;0.43;;;0.43;;
595;SDS011;19946;49.306;11.350;2023-07-20T05:14:31;0.50;;;0.50;;
595;SDS011;19946;49.306;11.350;2023-07-20T05:17:31;0.60;;;0.60;;
595;SDS011;19946;49.306;11.350;2023-07-20T05:20:32;0.50;;;0.50;;
595;SDS011;19946;49.306;11.350;2023-07-20T05:23:34;0.30;;;0.30;;
595;SDS011;19946;49.306;11.350;2023-07-20T05:26:35;0.40;;;0.40;;
595;SDS011;19946;49.306;11.350;2023-07-20T05:29:36;0.50;;;0.50;;
595;SDS011;19946;49.306;11.350;2023-07-20T05:32:37;0.40;;;0.40;;
595;SDS011;19946;49.306;11.350;2023-07-20T05:35:38;0.30;;;0.30;;
595;SDS011;19946;49.306;11.350;2023-07-20T05:38:38;0.40;;;0.40;;
595;SDS011;19946;49.306;11.350;2023-07-20T05:41:38;0.30;;;0.30;;
595;SDS011;19946;49.306;11.350;2023-07-20T05:44:39;0.30;;;0.30;;
595;SDS011;19946;49.306;11.350;2023-07-20T05:47:41;0.20;;;0.20;;
595;SDS011;19946;49.306;11.350;2023-07-20T05:50:42;0.20;;;0.20;;
595;SDS011;19946;49.306;11.350;2023-07-20T05:53:45;0.30;;;0.30;;
595;SDS011;19946;49.306;11.350;2023-07-20T05:56:46;0.40;;;0.40;;
595;SDS011;19946;49.306;11.350;2023-07-20T05:59:46;0.40;;;0.40;;
595;SDS011;19946;49.306;11.350;2023-07-20T06:02:47;0.70;;;0.70;;
595;SDS011;19946;49.306;11.350;2023-07-20T06:05:47;0.50;;;0.50;;
595;SDS011;19946;49.306;11.350;2023-07-20T06:08:48;0.80;;;0.80;;
595;SDS011;19946;49.306;11.350;2023-07-20T06:11:48;0.90;;;0.90;;
595;SDS011;19946;49.306;11.350;2023-07-20T06:14:48;0.77;;;0.77;;
595;SDS011;19946;49.306;11.350;2023-07-20T06:17:49;1.00;;;1.00;;
595;SDS011;19946;49.306;11.350;2023-07-20T06:20:50;0.60;;;0.60;;
595;SDS011;19946;49.306;11.350;2023-07-20T06:23:50;0.60;;;0.60;;
595;SDS011;19946;49.306;11.350;2023-07-20T06:26:51;0.80;;;0.80;;
595;SDS011;19946;49.306;11.350;2023-07-20T06:29:51;0.80;;;0.80;;
595;SDS011;19946;49.306;11.350;2023-07-20T06:32:51;0.90;;;0.90;;
595;SDS011;19946;49.306;11.350;2023-07-20T06:35:52;0.90;;;0.90;;
595;SDS011;19946;49.306;11.350;2023-07-20T06:38:53;0.93;;;0.93;;
595;SDS011;19946;49.306;11.350;2023-07-20T06:41:53;1.00;;;1.00;;
595;SDS011;19946;49.306;11.350;2023-07-20T06:44:53;1.10;;;1.10;;
595;SDS011;19946;49.306;11.350;2023-07-20T06:47:53;0.80;;;0.80;;
595;SDS011;19946;49.306;11.350;2023-07-20T06:50:54;0.67;;;0.67;;
595;SDS011;19946;49.306;11.350;2023-07-20T06:53:54;0.70;;;0.70;;
595;SDS011;19946;49.306;11.350;2023-07-20T06:56:54;0.60;;;0.60;;
595;SDS011;19946;49.306;11.350;2023-07-20T06:59:55;0.67;;;0.67;;
595;SDS011;19946;49.306;11.350;2023-07-20T07:02:55;0.63;;;0.63;;
595;SDS011;19946;49.306;11.350;2023-07-20T07:05:55;0.70;;;0.70;;
595;SDS011;19946;49.306;11.350;2023-07-20T07:08:56;0.90;;;0.90;;
595;SDS011;19946;49.306;11.350;2023-07-20T07:11:56;0.70;;;0.70;;
595;SDS011;19946;49.306;11.350;2023-07-20T07:14:57;0.60;;;0.60;;
595;SDS011;19946;49.306;11.350;2023-07-20T07:17:58;1.00;;;1.00;;
595;SDS011;19946;49.306;11.350;2023-07-20T07:20:59;0.90;;;0.90;;
595;SDS011;19946;49.306;11.350;2023-07-20T07:23:59;1.03;;;1.03;;
595;SDS011;19946;49.306;11.350;2023-07-20T07:27:00;1.20;;;1.20;;
595;SDS011;19946;49.306;11.350;2023-07-20T07:30:01;1.10;;;1.10;;
595;SDS011;19946;49.306;11.350;2023-07-20T07:33:05;1.10;;;1.10;;
595;SDS011;19946;49.306;11.350;2023-07-20T07:36:05;1.10;;;1.10;;
595;SDS011;19946;49.306;11.350;2023-07-20T07:39:05;1.17;;;1.17;;
595;SDS011;19946;49.306;11.350;2023-07-20T07:42:06;1.23;;;1.23;;
595;SDS011;19946;49.306;11.350;2023-07-20T07:45:06;1.10;;;1.10;;
595;SDS011;19946;49.306;11.350;2023-07-20T07:48:07;1.20;;;1.20;;
595;SDS011;19946;49.306;11.350;2023-07-20T07:51:08;1.10;;;1.10;;
595;SDS011;19946;49.306;11.350;2023-07-20T07:54:09;1.20;;;1.20;;
595;SDS011;19946;49.306;11.350;2023-07-20T07:57:09;1.37;;;1.37;;
595;SDS011;19946;49.306;11.350;2023-07-20T08:00:09;1.40;;;1.40;;
595;SDS011;19946;49.306;11.350;2023-07-20T08:03:14;1.30;;;1.30;;
595;SDS011;19946;49.306;11.350;2023-07-20T08:06:14;1.10;;;1.10;;
595;SDS011;19946;49.306;11.350;2023-07-20T08:09:15;0.90;;;0.90;;
595;SDS011;19946;49.306;11.350;2023-07-20T08:12:15;1.00;;;1.00;;
595;SDS011;19946;49.306;11.350;2023-07-20T08:15:17;1.10;;;1.10;;
595;SDS011;19946;49.306;11.350;2023-07-20T08:18:18;1.00;;;1.00;;
595;SDS011;19946;49.306;11.350;2023-07-20T08:21:18;1.30;;;1.30;;
595;SDS011;19946;49.306;11.350;2023-07-20T08:24:18;1.10;;;1.10;;
595;SDS011;19946;49.306;11.350;2023-07-20T08:27:19;1.07;;;1.07;;
595;SDS011;19946;49.306;11.350;2023-07-20T08:30:21;1.03;;;1.03;;
595;SDS011;19946;49.306;11.350;2023-07-20T08:33:23;0.90;;;0.90;;
595;SDS011;19946;49.306;11.350;2023-07-20T08:36:24;0.90;;;0.90;;
595;SDS011;19946;49.306;11.350;2023-07-20T08:39:25;0.83;;;0.83;;
595;SDS011;19946;49.306;11.350;2023-07-20T08:42:25;0.70;;;0.70;;
595;SDS011;19946;49.306;11.350;2023-07-20T08:45:27;0.70;;;0.70;;
595;SDS011;19946;49.306;11.350;2023-07-20T08:48:31;0.73;;;0.73;;
595;SDS011;19946;49.306;11.350;2023-07-20T08:51:33;0.80;;;0.80;;
595;SDS011;19946;49.306;11.350;2023-07-20T08:54:33;0.80;;;0.80;;
595;SDS011;19946;49.306;11.350;2023-07-20T08:57:35;0.90;;;0.90;;
595;SDS011;19946;49.306;11.350;2023-07-20T09:00:36;0.87;;;0.87;;
595;SDS011;19946;49.306;11.350;2023-07-20T09:03:37;0.80;;;0.80;;
595;SDS011;19946;49.306;11.350;2023-07-20T09:06:39;0.70;;;0.70;;
595;SDS011;19946;49.306;11.350;2023-07-20T09:09:40;0.87;;;0.87;;
595;SDS011;19946;49.306;11.350;2023-07-20T09:12:42;0.63;;;0.63;;
595;SDS011;19946;49.306;11.350;2023-07-20T09:15:46;0.60;;;0.60;;
595;SDS011;19946;49.306;11.350;2023-07-20T09:18:47;0.70;;;0.70;;
595;SDS011;19946;49.306;11.350;2023-07-20T09:21:48;0.77;;;0.77;;
595;SDS011;19946;49.306;11.350;2023-07-20T09:24:50;0.73;;;0.73;;
595;SDS011;19946;49.306;11.350;2023-07-20T09:27:52;0.80;;;0.80;;
595;SDS011;19946;49.306;11.350;2023-07-20T09:30:54;0.87;;;0.87;;
595;SDS011;19946;49.306;11.350;2023-07-20T09:33:57;0.80;;;0.80;;
595;SDS011;19946;49.306;11.350;2023-07-20T09:36:58;0.70;;;0.70;;
595;SDS011;19946;49.306;11.350;2023-07-20T09:39:59;0.60;;;0.60;;
595;SDS011;19946;49.306;11.350;2023-07-20T09:42:59;0.60;;;0.60;;
595;SDS011;19946;49.306;11.350;2023-07-20T09:46:00;0.77;;;0.77;;
595;SDS011;19946;49.306;11.350;2023-07-20T09:49:01;0.80;;;0.80;;
595;SDS011;19946;49.306;11.350;2023-07-20T09:52:01;0.77;;;0.77;;
595;SDS011;19946;49.306;11.350;2023-07-20T09:55:03;0.60;;;0.60;;
595;SDS011;19946;49.306;11.350;2023-07-20T09:58:03;0.50;;;0.50;;
595;SDS011;19946;49.306;11.350;2023-07-20T10:01:07;0.63;;;0.63;;
595;SDS011;19946;49.306;11.350;2023-07-20T10:04:09;0.50;;;0.50;;
595;SDS011;19946;49.306;11.350;2023-07-20T10:07:11;0.57;;;0.57;;
595;SDS011;19946;49.306;11.350;2023-07-20T10:10:15;0.53;;;0.53;;
595;SDS011;19946;49.306;11.350;2023-07-20T10:13:25;0.50;;;0.50;;
595;SDS011;19946;49.306;11.350;2023-07-20T10:16:39;0.40;;;0.40;;
595;SDS011;19946;49.306;11.350;2023-07-20T10:19:49;0.50;;;0.50;;
595;SDS011;19946;49.306;11.350;2023-07-20T10:22:53;0.57;;;0.57;;
595;SDS011;19946;49.306;11.350;2023-07-20T10:25:54;0.50;;;0.50;;
595;SDS011;19946;49.306;11.350;2023-07-20T10:28:56;0.40;;;0.40;;
595;SDS011;19946;49.306;11.350;2023-07-20T10:31:57;0.43;;;0.43;;
595;SDS011;19946;49.306;11.350;2023-07-20T10:34:58;0.47;;;0.47;;
595;SDS011;19946;49.306;11.350;2023-07-20T10:38:01;0.50;;;0.50;;
595;SDS011;19946;49.306;11.350;2023-07-20T10:41:02;0.43;;;0.43;;
595;SDS011;19946;49.306;11.350;2023-07-20T10:44:03;0.60;;;0.60;;
595;SDS011;19946;49.306;11.350;2023-07-20T10:47:08;0.60;;;0.60;;
595;SDS011;19946;49.306;11.350;2023-07-20T10:50:10;0.53;;;0.53;;
595;SDS011;19946;49.306;11.350;2023-07-20T10:53:13;0.70;;;0.70;;
595;SDS011;19946;49.306;11.350;2023-07-20T10:56:19;0.50;;;0.50;;
595;SDS011;19946;49.306;11.350;2023-07-20T11:02:25;0.50;;;0.50;;
595;SDS011;19946;49.306;11.350;2023-07-20T11:05:32;0.30;;;0.30;;
595;SDS011;19946;49.306;11.350;2023-07-20T11:08:40;0.50;;;0.50;;
595;SDS011;19946;49.306;11.350;2023-07-20T11:11:47;0.33;;;0.33;;
595;SDS011;19946;49.306;11.350;2023-07-20T11:14:55;0.30;;;0.30;;
595;SDS011;19946;49.306;11.350;2023-07-20T11:18:10;0.40;;;0.40;;
595;SDS011;19946;49.306;11.350;2023-07-20T11:21:11;0.40;;;0.40;;
595;SDS011;19946;49.306;11.350;2023-07-20T11:24:12;0.33;;;0.33;;
595;SDS011;19946;49.306;11.350;2023-07-20T11:27:13;0.30;;;0.30;;
595;SDS011;19946;49.306;11.350;2023-07-20T11:30:17;0.40;;;0.40;;
595;SDS011;19946;49.306;11.350;2023-07-20T11:33:17;0.30;;;0.30;;
595;SDS011;19946;49.306;11.350;2023-07-20T11:36:18;0.30;;;0.30;;
595;SDS011;19946;49.306;11.350;2023-07-20T11:39:19;0.27;;;0.27;;
595;SDS011;19946;49.306;11.350;2023-07-20T11:42:21;0.30;;;0.30;;
595;SDS011;19946;49.306;11.350;2023-07-20T11:45:22;0.30;;;0.30;;
595;SDS011;19946;49.306;11.350;2023-07-20T11:48:22;0.33;;;0.33;;
595;SDS011;19946;49.306;11.350;2023-07-20T11:51:23;0.77;;;0.67;;
595;SDS011;19946;49.306;11.350;2023-07-20T11:54:24;0.43;;;0.43;;
595;SDS011;19946;49.306;11.350;2023-07-20T11:57:25;0.27;;;0.27;;
595;SDS011;19946;49.306;11.350;2023-07-20T12:00:25;0.33;;;0.33;;
595;SDS011;19946;49.306;11.350;2023-07-20T12:03:26;0.37;;;0.37;;
595;SDS011;19946;49.306;11.350;2023-07-20T12:06:27;0.20;;;0.20;;
595;SDS011;19946;49.306;11.350;2023-07-20T12:09:28;0.30;;;0.30;;
595;SDS011;19946;49.306;11.350;2023-07-20T12:12:28;0.23;;;0.23;;
595;SDS011;19946;49.306;11.350;2023-07-20T12:15:28;0.83;;;0.70;;
595;SDS011;19946;49.306;11.350;2023-07-20T12:18:35;0.20;;;0.20;;
595;SDS011;19946;49.306;11.350;2023-07-20T12:21:37;0.27;;;0.27;;
595;SDS011;19946;49.306;11.350;2023-07-20T12:24:38;0.23;;;0.23;;
595;SDS011;19946;49.306;11.350;2023-07-20T12:27:39;0.30;;;0.30;;
595;SDS011;19946;49.306;11.350;2023-07-20T12:30:40;0.37;;;0.37;;
595;SDS011;19946;49.306;11.350;2023-07-20T12:33:41;0.20;;;0.20;;
595;SDS011;19946;49.306;11.350;2023-07-20T12:36:42;0.27;;;0.27;;
595;SDS011;19946;49.306;11.350;2023-07-20T12:39:42;0.20;;;0.20;;
595;SDS011;19946;49.306;11.350;2023-07-20T12:42:44;0.50;;;0.50;;
595;SDS011;19946;49.306;11.350;2023-07-20T12:45:45;0.63;;;0.50;;
595;SDS011;19946;49.306;11.350;2023-07-20T12:48:45;0.37;;;0.20;;
595;SDS011;19946;49.306;11.350;2023-07-20T12:51:45;0.30;;;0.30;;
595;SDS011;19946;49.306;11.350;2023-07-20T12:54:46;0.23;;;0.23;;
595;SDS011;19946;49.306;11.350;2023-07-20T12:57:46;0.17;;;0.17;;
595;SDS011;19946;49.306;11.350;2023-07-20T13:00:47;1.27;;;0.67;;
595;SDS011;19946;49.306;11.350;2023-07-20T13:03:47;0.27;;;0.27;;
595;SDS011;19946;49.306;11.350;2023-07-20T13:06:47;0.23;;;0.23;;
595;SDS011;19946;49.306;11.350;2023-07-20T13:09:47;0.20;;;0.20;;
595;SDS011;19946;49.306;11.350;2023-07-20T13:12:48;0.20;;;0.20;;
595;SDS011;19946;49.306;11.350;2023-07-20T13:15:49;0.37;;;0.30;;
595;SDS011;19946;49.306;11.350;2023-07-20T13:18:50;0.20;;;0.20;;
595;SDS011;19946;49.306;11.350;2023-07-20T13:21:50;0.50;;;0.33;;
595;SDS011;19946;49.306;11.350;2023-07-20T13:24:50;0.10;;;0.10;;
595;SDS011;19946;49.306;11.350;2023-07-20T13:27:53;0.27;;;0.27;;
595;SDS011;19946;49.306;11.350;2023-07-20T13:30:53;0.50;;;0.50;;
595;SDS011;19946;49.306;11.350;2023-07-20T13:33:53;0.27;;;0.27;;
595;SDS011;19946;49.306;11.350;2023-07-20T13:36:54;0.67;;;0.43;;
595;SDS011;19946;49.306;11.350;2023-07-20T13:39:55;0.17;;;0.17;;
595;SDS011;19946;49.306;11.350;2023-07-20T13:42:55;0.27;;;0.27;;
595;SDS011;19946;49.306;11.350;2023-07-20T13:45:56;0.20;;;0.20;;
595;SDS011;19946;49.306;11.350;2023-07-20T13:48:56;0.43;;;0.27;;
595;SDS011;19946;49.306;11.350;2023-07-20T13:51:56;0.20;;;0.20;;
595;SDS011;19946;49.306;11.350;2023-07-20T13:54:57;0.33;;;0.33;;
595;SDS011;19946;49.306;11.350;2023-07-20T13:57:57;0.37;;;0.37;;
595;SDS011;19946;49.306;11.350;2023-07-20T14:00:58;0.10;;;0.10;;
595;SDS011;19946;49.306;11.350;2023-07-20T14:03:58;0.20;;;0.20;;
595;SDS011;19946;49.306;11.350;2023-07-20T14:06:59;0.10;;;0.10;;
595;SDS011;19946;49.306;11.350;2023-07-20T14:09:59;0.10;;;0.10;;
595;SDS011;19946;49.306;11.350;2023-07-20T14:12:59;0.30;;;0.30;;
595;SDS011;19946;49.306;11.350;2023-07-20T14:15:59;0.10;;;0.10;;
595;SDS011;19946;49.306;11.350;2023-07-20T14:19:00;0.10;;;0.10;;
595;SDS011;19946;49.306;11.350;2023-07-20T14:22:00;0.17;;;0.17;;
595;SDS011;19946;49.306;11.350;2023-07-20T14:25:00;0.20;;;0.20;;
595;SDS011;19946;49.306;11.350;2023-07-20T14:28:01;0.20;;;0.20;;
595;SDS011;19946;49.306;11.350;2023-07-20T14:31:01;0.10;;;0.10;;
595;SDS011;19946;49.306;11.350;2023-07-20T14:34:01;0.10;;;0.10;;
595;SDS011;19946;49.306;11.350;2023-07-20T14:37:02;0.10;;;0.10;;
595;SDS011;19946;49.306;11.350;2023-07-20T14:40:04;0.40;;;0.23;;
595;SDS011;19946;49.306;11.350;2023-07-20T14:43:05;0.10;;;0.10;;
595;SDS011;19946;49.306;11.350;2023-07-20T14:46:05;0.10;;;0.10;;
595;SDS011;19946;49.306;11.350;2023-07-20T14:49:06;0.10;;;0.10;;
595;SDS011;19946;49.306;11.350;2023-07-20T14:52:06;0.20;;;0.20;;
595;SDS011;19946;49.306;11.350;2023-07-20T14:55:07;0.40;;;0.40;;
595;SDS011;19946;49.306;11.350;2023-07-20T14:58:07;0.13;;;0.13;;
595;SDS011;19946;49.306;11.350;2023-07-20T15:01:08;0.27;;;0.20;;
595;SDS011;19946;49.306;11.350;2023-07-20T15:04:08;0.37;;;0.13;;
595;SDS011;19946;49.306;11.350;2023-07-20T15:07:09;0.10;;;0.10;;
595;SDS011;19946;49.306;11.350;2023-07-20T15:10:09;0.17;;;0.17;;
595;SDS011;19946;49.306;11.350;2023-07-20T15:13:09;0.13;;;0.13;;
595;SDS011;19946;49.306;11.350;2023-07-20T15:16:10;0.10;;;0.10;;
595;SDS011;19946;49.306;11.350;2023-07-20T15:19:11;0.10;;;0.10;;
595;SDS011;19946;49.306;11.350;2023-07-20T15:22:13;0.27;;;0.27;;
595;SDS011;19946;49.306;11.350;2023-07-20T15:25:13;0.43;;;0.20;;
595;SDS011;19946;49.306;11.350;2023-07-20T15:28:14;0.63;;;0.60;;
595;SDS011;19946;49.306;11.350;2023-07-20T15:31:14;0.77;;;0.37;;
595;SDS011;19946;49.306;11.350;2023-07-20T15:34:14;1.37;;;0.53;;
595;SDS011;19946;49.306;11.350;2023-07-20T15:37:15;0.27;;;0.27;;
595;SDS011;19946;49.306;11.350;2023-07-20T15:40:15;0.30;;;0.30;;
595;SDS011;19946;49.306;11.350;2023-07-20T15:43:16;0.10;;;0.10;;
595;SDS011;19946;49.306;11.350;2023-07-20T15:49:20;0.10;;;0.10;;
595;SDS011;19946;49.306;11.350;2023-07-20T15:52:20;0.10;;;0.10;;
595;SDS011;19946;49.306;11.350;2023-07-20T15:55:21;0.07;;;0.07;;
595;SDS011;19946;49.306;11.350;2023-07-20T15:58:21;0.23;;;0.13;;
595;SDS011;19946;49.306;11.350;2023-07-20T16:01:21;0.10;;;0.10;;
595;SDS011;19946;49.306;11.350;2023-07-20T16:04:21;0.10;;;0.10;;
595;SDS011;19946;49.306;11.350;2023-07-20T16:07:22;0.07;;;0.07;;
595;SDS011;19946;49.306;11.350;2023-07-20T16:10:22;0.10;;;0.10;;
595;SDS011;19946;49.306;11.350;2023-07-20T16:13:23;0.10;;;0.10;;
595;SDS011;19946;49.306;11.350;2023-07-20T16:16:23;0.10;;;0.10;;
595;SDS011;19946;49.306;11.350;2023-07-20T16:19:24;0.10;;;0.10;;
595;SDS011;19946;49.306;11.350;2023-07-20T16:22:24;0.10;;;0.10;;
595;SDS011;19946;49.306;11.350;2023-07-20T16:25:25;0.00;;;0.00;;
595;SDS011;19946;49.306;11.350;2023-07-20T16:28:25;0.00;;;0.00;;
595;SDS011;19946;49.306;11.350;2023-07-20T16:31:25;0.00;;;0.00;;
595;SDS011;19946;49.306;11.350;2023-07-20T16:34:26;0.10;;;0.10;;
595;SDS011;19946;49.306;11.350;2023-07-20T16:37:26;0.07;;;0.07;;
595;SDS011;19946;49.306;11.350;2023-07-20T16:40:26;0.03;;;0.03;;
595;SDS011;19946;49.306;11.350;2023-07-20T16:43:27;0.00;;;0.00;;
595;SDS011;19946;49.306;11.350;2023-07-20T16:46:27;0.10;;;0.10;;
595;SDS011;19946;49.306;11.350;2023-07-20T16:49:27;0.00;;;0.00;;
595;SDS011;19946;49.306;11.350;2023-07-20T16:52:28;0.00;;;0.00;;
595;SDS011;19946;49.306;11.350;2023-07-20T16:55:28;0.10;;;0.10;;
595;SDS011;19946;49.306;11.350;2023-07-20T16:58:29;0.10;;;0.10;;
595;SDS011;19946;49.306;11.350;2023-07-20T17:01:29;0.10;;;0.10;;
595;SDS011;19946;49.306;11.350;2023-07-20T17:04:30;0.10;;;0.10;;
595;SDS011;19946;49.306;11.350;2023-07-20T17:07:30;0.10;;;0.10;;
595;SDS011;19946;49.306;11.350;2023-07-20T17:10:31;0.10;;;0.10;;
595;SDS011;19946;49.306;11.350;2023-07-20T17:13:31;0.10;;;0.10;;
595;SDS011;19946;49.306;11.350;2023-07-20T17:16:33;0.00;;;0.00;;
595;SDS011;19946;49.306;11.350;2023-07-20T17:19:33;0.00;;;0.00;;
595;SDS011;19946;49.306;11.350;2023-07-20T17:22:34;0.10;;;0.10;;
595;SDS011;19946;49.306;11.350;2023-07-20T17:25:35;0.10;;;0.10;;
595;SDS011;19946;49.306;11.350;2023-07-20T17:28:35;0.13;;;0.13;;
595;SDS011;19946;49.306;11.350;2023-07-20T17:31:35;0.07;;;0.07;;
595;SDS011;19946;49.306;11.350;2023-07-20T17:34:36;0.13;;;0.13;;
595;SDS011;19946;49.306;11.350;2023-07-20T17:37:37;0.07;;;0.07;;
595;SDS011;19946;49.306;11.350;2023-07-20T17:40:39;0.10;;;0.10;;
595;SDS011;19946;49.306;11.350;2023-07-20T17:43:39;0.10;;;0.10;;
595;SDS011;19946;49.306;11.350;2023-07-20T17:46:40;0.00;;;0.00;;
595;SDS011;19946;49.306;11.350;2023-07-20T17:49:40;0.10;;;0.10;;
595;SDS011;19946;49.306;11.350;2023-07-20T17:52:41;0.00;;;0.00;;
595;SDS011;19946;49.306;11.350;2023-07-20T17:55:41;0.00;;;0.00;;
595;SDS011;19946;49.306;11.350;2023-07-20T17:58:41;0.00;;;0.00;;
595;SDS011;19946;49.306;11.350;2023-07-20T18:01:42;0.10;;;0.10;;
595;SDS011;19946;49.306;11.350;2023-07-20T18:04:42;0.00;;;0.00;;
595;SDS011;19946;49.306;11.350;2023-07-20T18:07:43;0.00;;;0.00;;
595;SDS011;19946;49.306;11.350;2023-07-20T18:10:44;0.10;;;0.10;;
595;SDS011;19946;49.306;11.350;2023-07-20T18:13:44;0.10;;;0.10;;
595;SDS011;19946;49.306;11.350;2023-07-20T18:16:44;0.00;;;0.00;;
595;SDS011;19946;49.306;11.350;2023-07-20T18:19:44;0.10;;;0.10;;
595;SDS011;19946;49.306;11.350;2023-07-20T18:22:47;0.10;;;0.10;;
595;SDS011;19946;49.306;11.350;2023-07-20T18:25:47;0.00;;;0.00;;
595;SDS011;19946;49.306;11.350;2023-07-20T18:28:48;0.00;;;0.00;;
595;SDS011;19946;49.306;11.350;2023-07-20T18:31:48;0.00;;;0.00;;
595;SDS011;19946;49.306;11.350;2023-07-20T18:34:48;0.03;;;0.03;;
595;SDS011;19946;49.306;11.350;2023-07-20T18:37:49;0.00;;;0.00;;
595;SDS011;19946;49.306;11.350;2023-07-20T18:40:50;0.10;;;0.10;;